sensor_id;sensor_type;location;lat;lon;timestamp;temperature;humidity
42095;DHT22;27753;55.724;37.612;2022-10-30T00:00:18;11.30;99.90
42095;DHT22;27753;55.724;37.612;2022-10-30T00:02:47;11.30;99.90
42095;DHT22;27753;55.724;37.612;2022-10-30T00:05:13;11.40;99.90
42095;DHT22;27753;55.724;37.612;2022-10-30T00:07:39;11.40;99.90
42095;DHT22;27753;55.724;37.612;2022-10-30T00:10:06;11.40;99.90
42095;DHT22;27753;55.724;37.612;2022-10-30T00:12:32;11.40;99.90
42095;DHT22;27753;55.724;37.612;2022-10-30T00:14:58;11.40;99.90
42095;DHT22;27753;55.724;37.612;2022-10-30T00:17:24;11.40;99.90
42095;DHT22;27753;55.724;37.612;2022-10-30T00:19:49;11.50;99.90
42095;DHT22;27753;55.724;37.612;2022-10-30T00:22:15;11.50;99.90
42095;DHT22;27753;55.724;37.612;2022-10-30T00:24:41;11.60;99.90
42095;DHT22;27753;55.724;37.612;2022-10-30T00:27:07;11.60;99.90
42095;DHT22;27753;55.724;37.612;2022-10-30T00:29:33;11.60;99.90
42095;DHT22;27753;55.724;37.612;2022-10-30T00:31:59;11.60;99.90
42095;DHT22;27753;55.724;37.612;2022-10-30T00:34:24;11.60;99.90
42095;DHT22;27753;55.724;37.612;2022-10-30T00:36:50;11.60;99.90
42095;DHT22;27753;55.724;37.612;2022-10-30T00:39:16;11.60;99.90
42095;DHT22;27753;55.724;37.612;2022-10-30T00:41:42;11.60;99.90
42095;DHT22;27753;55.724;37.612;2022-10-30T00:46:55;11.60;99.90
42095;DHT22;27753;55.724;37.612;2022-10-30T00:49:23;11.60;99.90
42095;DHT22;27753;55.724;37.612;2022-10-30T00:51:52;11.60;99.90
42095;DHT22;27753;55.724;37.612;2022-10-30T00:54:21;11.50;99.90
42095;DHT22;27753;55.724;37.612;2022-10-30T00:56:50;11.50;99.90
42095;DHT22;27753;55.724;37.612;2022-10-30T00:59:23;11.40;99.90
42095;DHT22;27753;55.724;37.612;2022-10-30T01:01:51;11.40;99.90
42095;DHT22;27753;55.724;37.612;2022-10-30T01:04:19;11.40;99.90
42095;DHT22;27753;55.724;37.612;2022-10-30T01:06:47;11.30;99.90
42095;DHT22;27753;55.724;37.612;2022-10-30T01:09:19;11.30;99.90
42095;DHT22;27753;55.724;37.612;2022-10-30T01:11:45;11.30;99.90
42095;DHT22;27753;55.724;37.612;2022-10-30T01:14:14;11.30;99.90
42095;DHT22;27753;55.724;37.612;2022-10-30T01:16:48;11.30;99.90
42095;DHT22;27753;55.724;37.612;2022-10-30T01:30:34;11.30;99.90
42095;DHT22;27753;55.724;37.612;2022-10-30T01:35:46;11.40;99.90
42095;DHT22;27753;55.724;37.612;2022-10-30T01:38:25;11.50;99.90
42095;DHT22;27753;55.724;37.612;2022-10-30T01:40:52;11.50;99.90
42095;DHT22;27753;55.724;37.612;2022-10-30T01:43:18;11.50;99.90
42095;DHT22;27753;55.724;37.612;2022-10-30T01:46:08;11.60;99.90
42095;DHT22;27753;55.724;37.612;2022-10-30T01:54:37;11.70;99.90
42095;DHT22;27753;55.724;37.612;2022-10-30T02:00:01;11.70;99.90
42095;DHT22;27753;55.724;37.612;2022-10-30T02:02:28;11.70;99.90
42095;DHT22;27753;55.724;37.612;2022-10-30T02:04:54;11.70;99.90
42095;DHT22;27753;55.724;37.612;2022-10-30T02:07:20;11.70;99.90
42095;DHT22;27753;55.724;37.612;2022-10-30T02:09:47;11.70;99.90
42095;DHT22;27753;55.724;37.612;2022-10-30T02:12:13;11.70;99.90
42095;DHT22;27753;55.724;37.612;2022-10-30T02:14:42;11.70;99.90
42095;DHT22;27753;55.724;37.612;2022-10-30T02:17:08;11.70;99.90
42095;DHT22;27753;55.724;37.612;2022-10-30T02:19:36;11.70;99.90
42095;DHT22;27753;55.724;37.612;2022-10-30T02:22:02;11.60;99.90
42095;DHT22;27753;55.724;37.612;2022-10-30T02:24:29;11.60;99.90
42095;DHT22;27753;55.724;37.612;2022-10-30T02:26:55;11.50;99.90
42095;DHT22;27753;55.724;37.612;2022-10-30T02:29:21;11.50;99.90
42095;DHT22;27753;55.724;37.612;2022-10-30T02:31:47;11.50;99.90
42095;DHT22;27753;55.724;37.612;2022-10-30T02:34:13;11.60;99.90
42095;DHT22;27753;55.724;37.612;2022-10-30T02:36:39;11.60;99.90
42095;DHT22;27753;55.724;37.612;2022-10-30T02:39:06;11.60;99.90
42095;DHT22;27753;55.724;37.612;2022-10-30T02:41:32;11.60;99.90
42095;DHT22;27753;55.724;37.612;2022-10-30T02:43:58;11.60;99.90
42095;DHT22;27753;55.724;37.612;2022-10-30T02:46:24;11.70;99.90
42095;DHT22;27753;55.724;37.612;2022-10-30T02:48:50;11.70;99.90
42095;DHT22;27753;55.724;37.612;2022-10-30T02:51:16;11.70;99.90
42095;DHT22;27753;55.724;37.612;2022-10-30T02:53:42;11.70;99.90
42095;DHT22;27753;55.724;37.612;2022-10-30T02:56:10;11.60;99.90
42095;DHT22;27753;55.724;37.612;2022-10-30T02:58:37;11.60;99.90
42095;DHT22;27753;55.724;37.612;2022-10-30T03:01:14;11.50;99.90
42095;DHT22;27753;55.724;37.612;2022-10-30T03:03:40;11.50;99.90
42095;DHT22;27753;55.724;37.612;2022-10-30T03:06:08;11.50;99.90
42095;DHT22;27753;55.724;37.612;2022-10-30T03:08:34;11.50;99.90
42095;DHT22;27753;55.724;37.612;2022-10-30T03:11:05;11.50;99.90
42095;DHT22;27753;55.724;37.612;2022-10-30T03:13:32;11.40;99.90
42095;DHT22;27753;55.724;37.612;2022-10-30T03:16:04;11.40;99.90
42095;DHT22;27753;55.724;37.612;2022-10-30T03:18:31;11.40;99.90
42095;DHT22;27753;55.724;37.612;2022-10-30T03:20:59;11.30;99.90
42095;DHT22;27753;55.724;37.612;2022-10-30T03:23:26;11.20;99.90
42095;DHT22;27753;55.724;37.612;2022-10-30T03:25:56;11.20;99.90
42095;DHT22;27753;55.724;37.612;2022-10-30T03:28:24;11.00;99.90
42095;DHT22;27753;55.724;37.612;2022-10-30T03:30:57;11.00;99.90
42095;DHT22;27753;55.724;37.612;2022-10-30T03:33:23;11.00;99.90
42095;DHT22;27753;55.724;37.612;2022-10-30T03:35:49;10.90;99.90
42095;DHT22;27753;55.724;37.612;2022-10-30T03:38:15;10.90;99.90
42095;DHT22;27753;55.724;37.612;2022-10-30T03:40:40;10.90;99.90
42095;DHT22;27753;55.724;37.612;2022-10-30T03:43:06;11.00;99.90
42095;DHT22;27753;55.724;37.612;2022-10-30T03:45:33;11.00;99.90
42095;DHT22;27753;55.724;37.612;2022-10-30T03:48:00;11.00;99.90
42095;DHT22;27753;55.724;37.612;2022-10-30T03:50:26;11.00;99.90
42095;DHT22;27753;55.724;37.612;2022-10-30T03:52:53;10.90;99.90
42095;DHT22;27753;55.724;37.612;2022-10-30T03:55:19;10.90;99.90
42095;DHT22;27753;55.724;37.612;2022-10-30T03:57:45;10.80;99.90
42095;DHT22;27753;55.724;37.612;2022-10-30T04:00:12;10.70;99.90
42095;DHT22;27753;55.724;37.612;2022-10-30T04:02:38;10.70;99.90
42095;DHT22;27753;55.724;37.612;2022-10-30T04:05:04;10.60;99.90
42095;DHT22;27753;55.724;37.612;2022-10-30T04:07:30;10.50;99.90
42095;DHT22;27753;55.724;37.612;2022-10-30T04:09:56;10.50;99.90
42095;DHT22;27753;55.724;37.612;2022-10-30T04:12:21;10.50;99.90
42095;DHT22;27753;55.724;37.612;2022-10-30T04:14:47;10.40;99.90
42095;DHT22;27753;55.724;37.612;2022-10-30T04:17:13;10.30;99.90
42095;DHT22;27753;55.724;37.612;2022-10-30T04:19:39;10.30;99.90
42095;DHT22;27753;55.724;37.612;2022-10-30T04:22:04;10.40;99.90
42095;DHT22;27753;55.724;37.612;2022-10-30T04:24:30;10.40;99.90
42095;DHT22;27753;55.724;37.612;2022-10-30T04:26:56;10.40;99.90
42095;DHT22;27753;55.724;37.612;2022-10-30T04:29:22;10.50;99.90
42095;DHT22;27753;55.724;37.612;2022-10-30T04:31:47;10.40;99.90
42095;DHT22;27753;55.724;37.612;2022-10-30T04:34:13;10.40;99.90
42095;DHT22;27753;55.724;37.612;2022-10-30T04:36:39;10.40;99.90
42095;DHT22;27753;55.724;37.612;2022-10-30T04:39:05;10.40;99.90
42095;DHT22;27753;55.724;37.612;2022-10-30T04:41:31;10.40;99.90
42095;DHT22;27753;55.724;37.612;2022-10-30T04:43:56;10.40;99.90
42095;DHT22;27753;55.724;37.612;2022-10-30T04:46:22;10.50;99.90
42095;DHT22;27753;55.724;37.612;2022-10-30T04:48:48;10.60;99.90
42095;DHT22;27753;55.724;37.612;2022-10-30T04:51:14;10.60;99.90
42095;DHT22;27753;55.724;37.612;2022-10-30T04:53:40;10.60;99.90
42095;DHT22;27753;55.724;37.612;2022-10-30T04:56:06;10.60;99.90
42095;DHT22;27753;55.724;37.612;2022-10-30T04:58:32;10.40;99.90
42095;DHT22;27753;55.724;37.612;2022-10-30T05:01:04;10.40;99.90
42095;DHT22;27753;55.724;37.612;2022-10-30T05:03:31;10.30;99.90
42095;DHT22;27753;55.724;37.612;2022-10-30T05:06:12;10.30;99.90
42095;DHT22;27753;55.724;37.612;2022-10-30T05:08:39;10.20;99.90
42095;DHT22;27753;55.724;37.612;2022-10-30T05:11:05;10.20;99.90
42095;DHT22;27753;55.724;37.612;2022-10-30T05:13:31;10.20;99.90
42095;DHT22;27753;55.724;37.612;2022-10-30T05:15:57;10.10;99.90
42095;DHT22;27753;55.724;37.612;2022-10-30T05:18:23;10.10;99.90
42095;DHT22;27753;55.724;37.612;2022-10-30T05:20:48;10.10;99.90
42095;DHT22;27753;55.724;37.612;2022-10-30T05:23:15;10.30;99.90
42095;DHT22;27753;55.724;37.612;2022-10-30T05:25:41;10.30;99.90
42095;DHT22;27753;55.724;37.612;2022-10-30T05:28:07;10.40;99.90
42095;DHT22;27753;55.724;37.612;2022-10-30T05:30:34;10.40;99.90
42095;DHT22;27753;55.724;37.612;2022-10-30T05:33:02;10.30;99.90
42095;DHT22;27753;55.724;37.612;2022-10-30T05:35:29;10.30;99.90
42095;DHT22;27753;55.724;37.612;2022-10-30T05:38:00;10.30;99.90
42095;DHT22;27753;55.724;37.612;2022-10-30T05:40:27;10.40;99.90
42095;DHT22;27753;55.724;37.612;2022-10-30T05:42:53;10.40;99.90
42095;DHT22;27753;55.724;37.612;2022-10-30T05:45:19;10.50;99.80
42095;DHT22;27753;55.724;37.612;2022-10-30T05:47:58;10.50;99.70
42095;DHT22;27753;55.724;37.612;2022-10-30T05:50:25;10.50;99.50
42095;DHT22;27753;55.724;37.612;2022-10-30T05:52:55;10.40;99.50
42095;DHT22;27753;55.724;37.612;2022-10-30T05:55:21;10.40;99.70
42095;DHT22;27753;55.724;37.612;2022-10-30T05:57:47;10.40;99.70
42095;DHT22;27753;55.724;37.612;2022-10-30T06:00:13;10.40;99.50
42095;DHT22;27753;55.724;37.612;2022-10-30T06:02:39;10.50;99.50
42095;DHT22;27753;55.724;37.612;2022-10-30T06:05:06;10.40;99.20
42095;DHT22;27753;55.724;37.612;2022-10-30T06:07:31;10.30;99.00
42095;DHT22;27753;55.724;37.612;2022-10-30T06:09:57;10.30;97.80
42095;DHT22;27753;55.724;37.612;2022-10-30T06:12:23;10.30;95.60
42095;DHT22;27753;55.724;37.612;2022-10-30T06:14:49;10.30;94.80
42095;DHT22;27753;55.724;37.612;2022-10-30T06:17:15;10.40;94.90
42095;DHT22;27753;55.724;37.612;2022-10-30T06:19:41;10.40;94.50
42095;DHT22;27753;55.724;37.612;2022-10-30T06:22:07;10.40;93.60
42095;DHT22;27753;55.724;37.612;2022-10-30T06:24:33;10.40;92.20
42095;DHT22;27753;55.724;37.612;2022-10-30T06:27:01;10.30;91.90
42095;DHT22;27753;55.724;37.612;2022-10-30T06:29:27;10.20;91.50
42095;DHT22;27753;55.724;37.612;2022-10-30T06:31:53;10.10;90.40
42095;DHT22;27753;55.724;37.612;2022-10-30T06:34:18;10.00;87.70
42095;DHT22;27753;55.724;37.612;2022-10-30T06:36:44;9.90;89.50
42095;DHT22;27753;55.724;37.612;2022-10-30T06:39:10;9.80;90.20
42095;DHT22;27753;55.724;37.612;2022-10-30T06:41:36;9.80;86.00
42095;DHT22;27753;55.724;37.612;2022-10-30T06:44:02;9.90;84.30
42095;DHT22;27753;55.724;37.612;2022-10-30T06:46:28;10.00;84.10
42095;DHT22;27753;55.724;37.612;2022-10-30T06:48:54;10.00;82.40
42095;DHT22;27753;55.724;37.612;2022-10-30T06:51:20;10.00;81.10
42095;DHT22;27753;55.724;37.612;2022-10-30T06:53:46;10.00;79.10
42095;DHT22;27753;55.724;37.612;2022-10-30T06:56:11;9.90;78.50
42095;DHT22;27753;55.724;37.612;2022-10-30T06:58:37;9.70;79.50
42095;DHT22;27753;55.724;37.612;2022-10-30T07:01:04;9.60;79.90
42095;DHT22;27753;55.724;37.612;2022-10-30T07:03:31;9.40;81.20
42095;DHT22;27753;55.724;37.612;2022-10-30T07:05:57;9.30;82.60
42095;DHT22;27753;55.724;37.612;2022-10-30T07:08:23;9.10;83.10
42095;DHT22;27753;55.724;37.612;2022-10-30T07:10:50;9.10;84.30
42095;DHT22;27753;55.724;37.612;2022-10-30T07:13:16;9.10;85.80
42095;DHT22;27753;55.724;37.612;2022-10-30T07:15:42;9.10;84.80
42095;DHT22;27753;55.724;37.612;2022-10-30T07:18:09;9.10;85.20
42095;DHT22;27753;55.724;37.612;2022-10-30T07:20:38;9.10;85.50
42095;DHT22;27753;55.724;37.612;2022-10-30T07:23:06;9.20;85.30
42095;DHT22;27753;55.724;37.612;2022-10-30T07:25:33;9.20;84.80
42095;DHT22;27753;55.724;37.612;2022-10-30T07:27:58;9.20;85.10
42095;DHT22;27753;55.724;37.612;2022-10-30T07:30:26;9.20;85.30
42095;DHT22;27753;55.724;37.612;2022-10-30T07:32:56;9.20;84.20
42095;DHT22;27753;55.724;37.612;2022-10-30T07:35:22;9.10;84.70
42095;DHT22;27753;55.724;37.612;2022-10-30T07:37:48;9.20;85.00
42095;DHT22;27753;55.724;37.612;2022-10-30T07:40:14;9.10;83.80
42095;DHT22;27753;55.724;37.612;2022-10-30T07:42:40;9.10;83.30
42095;DHT22;27753;55.724;37.612;2022-10-30T07:45:06;9.10;83.30
42095;DHT22;27753;55.724;37.612;2022-10-30T07:47:37;9.10;82.00
42095;DHT22;27753;55.724;37.612;2022-10-30T07:50:03;9.10;81.30
42095;DHT22;27753;55.724;37.612;2022-10-30T07:52:32;9.20;81.60
42095;DHT22;27753;55.724;37.612;2022-10-30T07:54:58;9.40;82.60
42095;DHT22;27753;55.724;37.612;2022-10-30T07:57:23;9.60;80.80
42095;DHT22;27753;55.724;37.612;2022-10-30T07:59:49;9.80;79.90
42095;DHT22;27753;55.724;37.612;2022-10-30T08:02:15;10.00;79.40
42095;DHT22;27753;55.724;37.612;2022-10-30T08:04:41;10.00;78.70
42095;DHT22;27753;55.724;37.612;2022-10-30T08:07:07;9.90;78.90
42095;DHT22;27753;55.724;37.612;2022-10-30T08:09:32;9.90;78.70
42095;DHT22;27753;55.724;37.612;2022-10-30T08:11:58;9.70;78.60
42095;DHT22;27753;55.724;37.612;2022-10-30T08:14:24;9.70;79.10
42095;DHT22;27753;55.724;37.612;2022-10-30T08:16:50;9.60;78.70
42095;DHT22;27753;55.724;37.612;2022-10-30T08:19:16;9.40;78.60
42095;DHT22;27753;55.724;37.612;2022-10-30T08:21:42;9.40;79.10
42095;DHT22;27753;55.724;37.612;2022-10-30T08:24:08;9.30;79.70
42095;DHT22;27753;55.724;37.612;2022-10-30T08:26:34;9.30;79.80
42095;DHT22;27753;55.724;37.612;2022-10-30T08:29:00;9.30;79.90
42095;DHT22;27753;55.724;37.612;2022-10-30T08:31:26;9.30;79.90
42095;DHT22;27753;55.724;37.612;2022-10-30T08:33:51;9.30;80.00
42095;DHT22;27753;55.724;37.612;2022-10-30T08:36:17;9.20;80.30
42095;DHT22;27753;55.724;37.612;2022-10-30T08:38:43;9.30;80.60
42095;DHT22;27753;55.724;37.612;2022-10-30T08:41:09;9.30;80.70
42095;DHT22;27753;55.724;37.612;2022-10-30T08:43:34;9.30;80.70
42095;DHT22;27753;55.724;37.612;2022-10-30T08:46:01;9.30;81.70
42095;DHT22;27753;55.724;37.612;2022-10-30T08:48:26;9.40;81.70
42095;DHT22;27753;55.724;37.612;2022-10-30T08:50:57;9.50;81.80
42095;DHT22;27753;55.724;37.612;2022-10-30T08:53:23;9.60;80.30
42095;DHT22;27753;55.724;37.612;2022-10-30T08:55:50;9.50;80.40
42095;DHT22;27753;55.724;37.612;2022-10-30T08:58:16;9.50;80.60
42095;DHT22;27753;55.724;37.612;2022-10-30T09:00:42;9.40;80.30
42095;DHT22;27753;55.724;37.612;2022-10-30T09:03:08;9.40;80.80
42095;DHT22;27753;55.724;37.612;2022-10-30T09:05:36;9.40;80.90
42095;DHT22;27753;55.724;37.612;2022-10-30T09:08:04;9.40;80.80
42095;DHT22;27753;55.724;37.612;2022-10-30T09:10:33;9.50;81.10
42095;DHT22;27753;55.724;37.612;2022-10-30T09:12:59;9.60;81.10
42095;DHT22;27753;55.724;37.612;2022-10-30T09:15:30;9.60;80.10
42095;DHT22;27753;55.724;37.612;2022-10-30T09:18:01;9.60;80.20
42095;DHT22;27753;55.724;37.612;2022-10-30T09:20:33;9.60;78.80
42095;DHT22;27753;55.724;37.612;2022-10-30T09:22:59;9.60;78.60
42095;DHT22;27753;55.724;37.612;2022-10-30T09:25:25;9.50;78.50
42095;DHT22;27753;55.724;37.612;2022-10-30T09:28:06;9.50;78.90
42095;DHT22;27753;55.724;37.612;2022-10-30T09:30:32;9.50;78.90
42095;DHT22;27753;55.724;37.612;2022-10-30T09:33:00;9.50;79.20
42095;DHT22;27753;55.724;37.612;2022-10-30T09:35:27;9.50;78.20
42095;DHT22;27753;55.724;37.612;2022-10-30T09:37:54;9.40;78.40
42095;DHT22;27753;55.724;37.612;2022-10-30T09:52:03;9.40;80.40
42095;DHT22;27753;55.724;37.612;2022-10-30T09:57:28;10.10;82.20
42095;DHT22;27753;55.724;37.612;2022-10-30T10:00:03;12.30;78.10
42095;DHT22;27753;55.724;37.612;2022-10-30T10:05:28;12.70;71.30
42095;DHT22;27753;55.724;37.612;2022-10-30T10:08:03;12.20;71.80
42095;DHT22;27753;55.724;37.612;2022-10-30T10:10:44;11.90;73.10
42095;DHT22;27753;55.724;37.612;2022-10-30T10:16:20;11.20;74.70
42095;DHT22;27753;55.724;37.612;2022-10-30T10:19:06;10.70;76.00
42095;DHT22;27753;55.724;37.612;2022-10-30T10:21:38;10.40;77.40
42095;DHT22;27753;55.724;37.612;2022-10-30T10:24:24;10.20;78.60
42095;DHT22;27753;55.724;37.612;2022-10-30T10:27:00;10.20;79.60
42095;DHT22;27753;55.724;37.612;2022-10-30T10:32:39;10.00;77.10
42095;DHT22;27753;55.724;37.612;2022-10-30T10:40:26;9.90;74.10
42095;DHT22;27753;55.724;37.612;2022-10-30T10:53:57;9.30;69.80
42095;DHT22;27753;55.724;37.612;2022-10-30T10:56:33;9.20;69.90
42095;DHT22;27753;55.724;37.612;2022-10-30T10:59:03;9.20;69.90
42095;DHT22;27753;55.724;37.612;2022-10-30T11:01:38;9.20;69.70
42095;DHT22;27753;55.724;37.612;2022-10-30T11:04:54;9.20;70.40
42095;DHT22;27753;55.724;37.612;2022-10-30T11:07:14;9.30;70.20
42095;DHT22;27753;55.724;37.612;2022-10-30T11:09:44;9.30;69.70
42095;DHT22;27753;55.724;37.612;2022-10-30T11:12:14;9.50;69.40
42095;DHT22;27753;55.724;37.612;2022-10-30T11:14:46;9.50;69.30
42095;DHT22;27753;55.724;37.612;2022-10-30T11:17:23;9.40;70.20
42095;DHT22;27753;55.724;37.612;2022-10-30T11:19:50;9.30;72.60
42095;DHT22;27753;55.724;37.612;2022-10-30T11:22:48;9.10;74.50
42095;DHT22;27753;55.724;37.612;2022-10-30T11:25:20;8.70;78.40
42095;DHT22;27753;55.724;37.612;2022-10-30T11:27:48;8.20;83.00
42095;DHT22;27753;55.724;37.612;2022-10-30T11:30:20;7.80;85.60
42095;DHT22;27753;55.724;37.612;2022-10-30T11:32:47;7.50;86.50
42095;DHT22;27753;55.724;37.612;2022-10-30T11:35:15;7.40;86.60
42095;DHT22;27753;55.724;37.612;2022-10-30T11:37:43;7.30;87.00
42095;DHT22;27753;55.724;37.612;2022-10-30T11:42:44;7.40;87.20
42095;DHT22;27753;55.724;37.612;2022-10-30T11:45:19;7.40;87.30
42095;DHT22;27753;55.724;37.612;2022-10-30T11:47:48;7.40;87.70
42095;DHT22;27753;55.724;37.612;2022-10-30T11:50:30;7.30;87.20
42095;DHT22;27753;55.724;37.612;2022-10-30T11:53:01;7.20;88.40
42095;DHT22;27753;55.724;37.612;2022-10-30T11:55:46;7.10;88.70
42095;DHT22;27753;55.724;37.612;2022-10-30T11:58:24;7.10;88.50
42095;DHT22;27753;55.724;37.612;2022-10-30T12:03:40;7.00;85.90
42095;DHT22;27753;55.724;37.612;2022-10-30T12:06:25;7.00;84.40
42095;DHT22;27753;55.724;37.612;2022-10-30T12:09:09;7.00;83.40
42095;DHT22;27753;55.724;37.612;2022-10-30T12:11:37;6.90;83.40
42095;DHT22;27753;55.724;37.612;2022-10-30T12:14:05;6.90;83.30
42095;DHT22;27753;55.724;37.612;2022-10-30T12:16:32;6.90;82.70
42095;DHT22;27753;55.724;37.612;2022-10-30T12:19:06;7.00;81.40
42095;DHT22;27753;55.724;37.612;2022-10-30T12:21:43;7.00;81.70
42095;DHT22;27753;55.724;37.612;2022-10-30T12:24:29;6.90;81.20
42095;DHT22;27753;55.724;37.612;2022-10-30T12:27:09;6.80;81.30
42095;DHT22;27753;55.724;37.612;2022-10-30T12:30:05;6.80;81.10
42095;DHT22;27753;55.724;37.612;2022-10-30T12:33:00;6.80;81.50
42095;DHT22;27753;55.724;37.612;2022-10-30T12:38:16;6.70;81.00
42095;DHT22;27753;55.724;37.612;2022-10-30T12:40:57;6.70;80.80
42095;DHT22;27753;55.724;37.612;2022-10-30T12:43:27;6.80;81.10
42095;DHT22;27753;55.724;37.612;2022-10-30T12:48:52;7.00;81.20
42095;DHT22;27753;55.724;37.612;2022-10-30T12:54:07;7.10;81.80
42095;DHT22;27753;55.724;37.612;2022-10-30T12:56:41;7.00;82.80
42095;DHT22;27753;55.724;37.612;2022-10-30T12:59:45;6.80;83.60
42095;DHT22;27753;55.724;37.612;2022-10-30T13:05:54;6.60;84.90
42095;DHT22;27753;55.724;37.612;2022-10-30T13:08:36;6.50;85.70
42095;DHT22;27753;55.724;37.612;2022-10-30T13:11:08;6.40;86.60
42095;DHT22;27753;55.724;37.612;2022-10-30T13:13:40;6.30;87.60
42095;DHT22;27753;55.724;37.612;2022-10-30T13:16:13;5.90;90.00
42095;DHT22;27753;55.724;37.612;2022-10-30T13:18:41;5.40;91.60
42095;DHT22;27753;55.724;37.612;2022-10-30T13:27:05;4.20;94.50
42095;DHT22;27753;55.724;37.612;2022-10-30T13:29:53;4.10;95.30
42095;DHT22;27753;55.724;37.612;2022-10-30T13:38:08;4.00;96.40
42095;DHT22;27753;55.724;37.612;2022-10-30T13:43:41;4.10;97.10
42095;DHT22;27753;55.724;37.612;2022-10-30T13:46:17;4.20;97.30
42095;DHT22;27753;55.724;37.612;2022-10-30T13:51:44;4.20;97.50
42095;DHT22;27753;55.724;37.612;2022-10-30T13:54:33;4.10;97.40
42095;DHT22;27753;55.724;37.612;2022-10-30T13:57:07;4.10;97.70
42095;DHT22;27753;55.724;37.612;2022-10-30T14:00:18;4.10;97.70
42095;DHT22;27753;55.724;37.612;2022-10-30T14:03:05;4.10;97.70
42095;DHT22;27753;55.724;37.612;2022-10-30T14:05:56;4.10;97.90
42095;DHT22;27753;55.724;37.612;2022-10-30T14:08:59;4.10;98.00
42095;DHT22;27753;55.724;37.612;2022-10-30T14:11:27;4.10;98.00
42095;DHT22;27753;55.724;37.612;2022-10-30T14:16:42;4.00;98.10
42095;DHT22;27753;55.724;37.612;2022-10-30T14:19:13;4.00;98.30
42095;DHT22;27753;55.724;37.612;2022-10-30T14:22:19;4.00;98.40
42095;DHT22;27753;55.724;37.612;2022-10-30T14:24:50;4.00;98.40
42095;DHT22;27753;55.724;37.612;2022-10-30T14:27:36;4.00;98.60
42095;DHT22;27753;55.724;37.612;2022-10-30T14:30:02;3.90;98.80
42095;DHT22;27753;55.724;37.612;2022-10-30T14:32:34;3.80;98.90
42095;DHT22;27753;55.724;37.612;2022-10-30T14:35:01;3.80;98.80
42095;DHT22;27753;55.724;37.612;2022-10-30T14:39:55;3.80;98.80
42095;DHT22;27753;55.724;37.612;2022-10-30T14:47:59;3.80;98.50
42095;DHT22;27753;55.724;37.612;2022-10-30T14:51:00;3.70;98.30
42095;DHT22;27753;55.724;37.612;2022-10-30T14:53:59;3.10;97.80
42095;DHT22;27753;55.724;37.612;2022-10-30T15:07:54;1.40;99.90
42095;DHT22;27753;55.724;37.612;2022-10-30T15:10:27;1.50;99.90
42095;DHT22;27753;55.724;37.612;2022-10-30T15:15:24;1.90;99.90
42095;DHT22;27753;55.724;37.612;2022-10-30T15:17:53;1.90;99.90
42095;DHT22;27753;55.724;37.612;2022-10-30T15:20:25;2.00;99.90
42095;DHT22;27753;55.724;37.612;2022-10-30T15:22:58;2.10;99.90
42095;DHT22;27753;55.724;37.612;2022-10-30T15:25:30;2.20;99.90
42095;DHT22;27753;55.724;37.612;2022-10-30T15:27:56;2.30;99.90
42095;DHT22;27753;55.724;37.612;2022-10-30T15:30:25;2.40;99.90
42095;DHT22;27753;55.724;37.612;2022-10-30T15:32:52;2.50;99.90
42095;DHT22;27753;55.724;37.612;2022-10-30T15:35:25;2.50;99.90
42095;DHT22;27753;55.724;37.612;2022-10-30T15:38:04;2.50;99.90
42095;DHT22;27753;55.724;37.612;2022-10-30T15:40:30;2.50;99.90
42095;DHT22;27753;55.724;37.612;2022-10-30T15:42:59;2.50;99.60
42095;DHT22;27753;55.724;37.612;2022-10-30T15:45:35;2.50;99.70
42095;DHT22;27753;55.724;37.612;2022-10-30T15:50:53;2.50;99.10
42095;DHT22;27753;55.724;37.612;2022-10-30T15:53:24;2.50;98.80
42095;DHT22;27753;55.724;37.612;2022-10-30T15:55:57;2.60;98.50
42095;DHT22;27753;55.724;37.612;2022-10-30T15:58:23;2.60;98.60
42095;DHT22;27753;55.724;37.612;2022-10-30T16:00:58;2.60;98.00
42095;DHT22;27753;55.724;37.612;2022-10-30T16:03:25;2.60;97.30
42095;DHT22;27753;55.724;37.612;2022-10-30T16:06:05;2.70;96.90
42095;DHT22;27753;55.724;37.612;2022-10-30T16:08:45;2.60;96.60
42095;DHT22;27753;55.724;37.612;2022-10-30T16:11:15;2.60;96.30
42095;DHT22;27753;55.724;37.612;2022-10-30T16:13:45;2.60;96.20
42095;DHT22;27753;55.724;37.612;2022-10-30T16:16:26;2.70;95.90
42095;DHT22;27753;55.724;37.612;2022-10-30T16:18:57;2.80;96.30
42095;DHT22;27753;55.724;37.612;2022-10-30T16:21:26;2.80;96.30
42095;DHT22;27753;55.724;37.612;2022-10-30T16:23:57;2.90;96.50
42095;DHT22;27753;55.724;37.612;2022-10-30T16:26:43;2.90;96.90
42095;DHT22;27753;55.724;37.612;2022-10-30T16:31:42;2.90;97.50
42095;DHT22;27753;55.724;37.612;2022-10-30T16:34:12;2.90;97.60
42095;DHT22;27753;55.724;37.612;2022-10-30T16:36:40;2.80;97.60
42095;DHT22;27753;55.724;37.612;2022-10-30T16:39:11;2.80;97.60
42095;DHT22;27753;55.724;37.612;2022-10-30T16:41:39;2.70;97.50
42095;DHT22;27753;55.724;37.612;2022-10-30T16:44:18;2.60;97.40
42095;DHT22;27753;55.724;37.612;2022-10-30T16:49:36;2.40;96.90
42095;DHT22;27753;55.724;37.612;2022-10-30T16:52:05;2.40;96.70
42095;DHT22;27753;55.724;37.612;2022-10-30T16:54:38;2.30;96.50
42095;DHT22;27753;55.724;37.612;2022-10-30T16:57:13;2.30;96.40
42095;DHT22;27753;55.724;37.612;2022-10-30T16:59:45;2.30;96.50
42095;DHT22;27753;55.724;37.612;2022-10-30T17:02:16;2.30;96.40
42095;DHT22;27753;55.724;37.612;2022-10-30T17:04:46;2.40;96.20
42095;DHT22;27753;55.724;37.612;2022-10-30T17:07:23;2.50;96.10
42095;DHT22;27753;55.724;37.612;2022-10-30T17:09:53;2.40;96.00
42095;DHT22;27753;55.724;37.612;2022-10-30T17:12:25;2.40;96.00
42095;DHT22;27753;55.724;37.612;2022-10-30T17:15:22;2.30;96.20
42095;DHT22;27753;55.724;37.612;2022-10-30T17:18:09;2.20;96.40
42095;DHT22;27753;55.724;37.612;2022-10-30T17:20:38;2.20;96.80
42095;DHT22;27753;55.724;37.612;2022-10-30T17:23:16;2.10;96.90
42095;DHT22;27753;55.724;37.612;2022-10-30T17:25:43;2.20;97.10
42095;DHT22;27753;55.724;37.612;2022-10-30T17:28:32;2.20;97.20
42095;DHT22;27753;55.724;37.612;2022-10-30T17:33:44;2.40;97.10
42095;DHT22;27753;55.724;37.612;2022-10-30T17:36:10;2.50;97.00
42095;DHT22;27753;55.724;37.612;2022-10-30T17:38:39;2.50;96.80
42095;DHT22;27753;55.724;37.612;2022-10-30T17:41:06;2.50;96.70
42095;DHT22;27753;55.724;37.612;2022-10-30T17:43:45;2.40;96.70
42095;DHT22;27753;55.724;37.612;2022-10-30T17:46:11;2.40;96.80
42095;DHT22;27753;55.724;37.612;2022-10-30T17:48:37;2.20;96.80
42095;DHT22;27753;55.724;37.612;2022-10-30T17:51:07;2.20;97.00
42095;DHT22;27753;55.724;37.612;2022-10-30T17:53:33;2.10;97.10
42095;DHT22;27753;55.724;37.612;2022-10-30T17:56:19;2.10;97.10
42095;DHT22;27753;55.724;37.612;2022-10-30T17:58:46;2.00;97.30